createdAt,value
2022-10-15T00:01:17.356Z,11.56
2022-10-15T00:03:45.510Z,11.63
2022-10-15T00:06:15.460Z,11.38
2022-10-15T00:08:42.600Z,11.40
2022-10-15T00:11:15.271Z,11.12
2022-10-15T00:13:42.331Z,11.32
2022-10-15T00:16:12.707Z,11.28
2022-10-15T00:18:40.382Z,11.46
2022-10-15T00:21:11.879Z,11.36
2022-10-15T00:23:38.675Z,11.54
2022-10-15T00:26:13.809Z,11.56
2022-10-15T00:28:40.490Z,11.35
2022-10-15T00:31:10.022Z,11.11
2022-10-15T00:33:37.385Z,11.38
2022-10-15T00:36:08.003Z,11.19
2022-10-15T00:38:35.428Z,11.38
2022-10-15T00:41:02.160Z,11.39
2022-10-15T00:43:43.831Z,11.09
2022-10-15T00:46:17.281Z,11.31
2022-10-15T00:48:45.824Z,11.46
2022-10-15T00:51:12.317Z,11.04
2022-10-15T00:53:39.006Z,11.43
2022-10-15T00:56:05.809Z,11.14
2022-10-15T00:58:32.874Z,11.23
2022-10-15T01:00:59.699Z,11.29
2022-10-15T01:03:26.619Z,11.27
2022-10-15T01:09:42.543Z,11.43
2022-10-15T01:12:28.182Z,11.34
2022-10-15T01:15:15.763Z,10.96
2022-10-15T01:17:47.928Z,10.75
2022-10-15T01:20:33.027Z,11.22
2022-10-15T01:23:05.347Z,11.28
2022-10-15T01:25:42.308Z,11.49
2022-10-15T01:28:42.480Z,11.34
2022-10-15T01:31:29.883Z,11.29
2022-10-15T01:34:22.513Z,11.49
2022-10-15T01:37:16.664Z,11.25
2022-10-15T01:39:52.909Z,11.42
2022-10-15T01:42:29.241Z,11.56
2022-10-15T01:45:00.407Z,11.40
2022-10-15T01:47:35.977Z,11.42
2022-10-15T01:50:05.103Z,11.33
2022-10-15T01:52:37.145Z,11.38
2022-10-15T01:55:07.103Z,11.19
2022-10-15T01:57:34.597Z,11.53
2022-10-15T02:00:04.352Z,11.31
2022-10-15T02:02:30.822Z,11.37
2022-10-15T02:04:57.252Z,11.22
2022-10-15T02:07:35.597Z,10.97
2022-10-15T02:10:20.639Z,11.09
2022-10-15T02:13:12.860Z,11.25
2022-10-15T02:15:48.867Z,11.47
2022-10-15T02:18:21.064Z,11.33
2022-10-15T02:20:58.906Z,11.47
2022-10-15T02:23:39.650Z,11.40
2022-10-15T02:26:10.555Z,11.40
2022-10-15T02:28:40.216Z,11.36
2022-10-15T02:31:10.305Z,11.39
2022-10-15T02:33:38.462Z,11.50
2022-10-15T02:36:06.094Z,11.56
2022-10-15T02:38:34.255Z,11.37
2022-10-15T02:41:01.205Z,11.61
2022-10-15T02:43:27.811Z,11.37
2022-10-15T02:45:54.253Z,11.43
2022-10-15T02:48:20.679Z,11.53
2022-10-15T02:50:47.110Z,11.54
2022-10-15T02:53:13.610Z,11.36
2022-10-15T02:55:40.038Z,11.51
2022-10-15T02:58:06.461Z,11.54
2022-10-15T03:00:32.961Z,11.44
2022-10-15T03:02:59.343Z,11.51
2022-10-15T03:05:25.868Z,11.43
2022-10-15T03:07:52.590Z,11.52
2022-10-15T03:10:18.994Z,11.36
2022-10-15T03:12:45.405Z,11.29
2022-10-15T03:15:12.446Z,11.22
2022-10-15T03:17:38.907Z,11.22
2022-10-15T03:20:05.783Z,11.31
2022-10-15T03:22:32.190Z,11.30
2022-10-15T03:24:58.697Z,11.34
2022-10-15T03:27:25.546Z,11.36
2022-10-15T03:29:52.335Z,11.44
2022-10-15T03:32:18.715Z,11.11
2022-10-15T03:34:45.249Z,11.20
2022-10-15T03:37:11.673Z,11.25
2022-10-15T03:39:38.185Z,11.27
2022-10-15T03:42:04.762Z,11.45
2022-10-15T03:44:31.352Z,11.48
2022-10-15T03:46:57.801Z,11.38
2022-10-15T03:49:24.248Z,11.37
2022-10-15T03:51:50.668Z,11.44
2022-10-15T03:54:17.222Z,11.43
2022-10-15T03:56:43.729Z,11.11
2022-10-15T03:59:10.246Z,11.26
2022-10-15T04:01:37.140Z,11.04
2022-10-15T04:04:03.721Z,11.18
2022-10-15T04:06:30.245Z,11.18
2022-10-15T04:08:56.699Z,11.05
2022-10-15T04:11:23.108Z,11.19
2022-10-15T04:13:50.240Z,11.39
2022-10-15T04:16:17.586Z,11.14
2022-10-15T04:18:44.085Z,11.16
2022-10-15T04:21:11.554Z,11.20
2022-10-15T04:23:38.091Z,10.99
2022-10-15T04:26:06.229Z,10.92
2022-10-15T04:28:33.462Z,11.31
2022-10-15T04:31:01.300Z,11.19
2022-10-15T04:33:28.534Z,10.99
2022-10-15T04:36:07.403Z,11.37
2022-10-15T04:38:34.588Z,11.35
2022-10-15T04:41:03.433Z,11.28
2022-10-15T04:43:30.201Z,11.36
2022-10-15T04:45:58.732Z,11.33
2022-10-15T04:48:27.446Z,11.42
2022-10-15T04:50:53.938Z,11.38
2022-10-15T04:53:20.775Z,11.55
2022-10-15T04:55:47.601Z,11.44
2022-10-15T04:58:14.088Z,11.59
2022-10-15T05:00:40.616Z,11.59
2022-10-15T05:03:07.174Z,11.47
2022-10-15T05:05:33.645Z,11.50
2022-10-15T05:08:03.986Z,11.38
2022-10-15T05:10:30.649Z,11.46
2022-10-15T05:12:57.103Z,11.45
2022-10-15T05:15:26.200Z,11.46
2022-10-15T05:17:52.878Z,11.56
2022-10-15T05:20:19.284Z,11.40
2022-10-15T05:22:45.872Z,11.45
2022-10-15T05:25:12.253Z,11.49
2022-10-15T05:27:38.702Z,11.51
2022-10-15T05:30:06.028Z,11.54
2022-10-15T05:32:32.473Z,11.52
2022-10-15T05:34:58.898Z,11.44
2022-10-15T05:37:25.739Z,11.34
2022-10-15T05:39:52.332Z,11.42
2022-10-15T05:42:18.727Z,11.37
2022-10-15T05:44:45.133Z,11.45
2022-10-15T05:47:12.408Z,11.52
2022-10-15T05:49:39.019Z,11.60
2022-10-15T05:52:05.551Z,11.45
2022-10-15T05:54:32.345Z,11.49
2022-10-15T05:56:58.770Z,11.54
2022-10-15T05:59:25.180Z,11.48
2022-10-15T06:01:51.741Z,11.54
2022-10-15T06:04:18.259Z,11.66
2022-10-15T06:06:44.690Z,11.56
2022-10-15T06:09:11.090Z,11.39
2022-10-15T06:11:37.531Z,11.42
2022-10-15T06:14:04.031Z,11.61
2022-10-15T06:16:30.569Z,11.55
2022-10-15T06:18:56.971Z,11.61
2022-10-15T06:21:23.459Z,11.43
2022-10-15T06:23:49.995Z,11.65
2022-10-15T06:26:16.613Z,11.60
2022-10-15T06:28:43.152Z,11.66
2022-10-15T06:31:09.639Z,11.65
2022-10-15T06:33:36.084Z,11.50
2022-10-15T06:36:05.054Z,11.64
2022-10-15T06:38:31.989Z,11.86
2022-10-15T06:40:58.555Z,11.94
2022-10-15T06:43:25.081Z,12.10
2022-10-15T06:45:51.851Z,11.86
2022-10-15T06:48:18.580Z,12.04
2022-10-15T06:50:45.200Z,11.81
2022-10-15T06:53:11.605Z,11.74
2022-10-15T06:55:39.530Z,11.68
2022-10-15T06:58:06.199Z,11.95
2022-10-15T07:00:32.939Z,11.89
2022-10-15T07:03:07.011Z,12.03
2022-10-15T07:05:34.420Z,12.10
2022-10-15T07:08:01.390Z,12.10
2022-10-15T07:10:28.889Z,12.08
2022-10-15T07:12:55.372Z,12.20
2022-10-15T07:15:22.160Z,12.26
2022-10-15T07:17:49.944Z,12.36
2022-10-15T07:20:20.256Z,12.58
2022-10-15T07:22:49.824Z,12.64
2022-10-15T07:25:16.383Z,13.11
2022-10-15T07:27:42.837Z,13.32
2022-10-15T07:30:10.024Z,13.10
2022-10-15T07:32:36.543Z,13.55
2022-10-15T07:35:03.957Z,13.93
2022-10-15T07:37:31.617Z,14.09
2022-10-15T07:39:58.031Z,14.57
2022-10-15T07:42:24.533Z,14.93
2022-10-15T07:44:50.958Z,14.67
2022-10-15T07:47:17.387Z,15.40
2022-10-15T07:49:43.866Z,16.02
2022-10-15T07:52:10.384Z,15.53
2022-10-15T07:54:37.013Z,15.80
2022-10-15T07:57:03.837Z,15.92
2022-10-15T07:59:30.325Z,15.90
2022-10-15T08:01:56.722Z,16.15
2022-10-15T08:04:23.200Z,16.57
2022-10-15T08:06:49.914Z,17.01
2022-10-15T08:09:16.937Z,17.43
2022-10-15T08:11:43.665Z,17.32
2022-10-15T08:14:10.254Z,17.44
2022-10-15T08:16:36.678Z,16.99
2022-10-15T08:19:03.491Z,17.05
2022-10-15T08:21:29.869Z,17.42
2022-10-15T08:23:56.373Z,16.84
2022-10-15T08:26:23.073Z,16.84
2022-10-15T08:28:50.984Z,16.93
2022-10-15T08:31:19.180Z,17.68
2022-10-15T08:33:46.491Z,18.01
2022-10-15T08:36:13.036Z,18.94
2022-10-15T08:38:39.438Z,19.34
2022-10-15T08:41:19.812Z,19.88
2022-10-15T08:43:47.591Z,20.70
2022-10-15T08:46:20.406Z,20.82
2022-10-15T08:48:55.329Z,20.71
2022-10-15T08:51:25.270Z,20.59
2022-10-15T08:54:02.166Z,19.96
2022-10-15T08:56:37.077Z,20.19
2022-10-15T08:59:12.225Z,20.36
2022-10-15T09:01:49.743Z,19.67
2022-10-15T09:04:20.726Z,19.39
2022-10-15T09:06:53.145Z,19.08
2022-10-15T09:09:48.893Z,19.04
2022-10-15T09:12:47.442Z,18.89
2022-10-15T09:15:17.239Z,18.73
2022-10-15T09:17:46.547Z,18.54
2022-10-15T09:20:18.534Z,18.03
2022-10-15T09:25:18.667Z,18.14
2022-10-15T09:27:47.896Z,18.16
2022-10-15T09:30:51.010Z,18.41
2022-10-15T09:33:36.365Z,18.53
2022-10-15T09:36:09.063Z,18.78
2022-10-15T09:38:54.395Z,19.07
2022-10-15T09:41:39.505Z,19.63
2022-10-15T09:44:13.581Z,20.44
2022-10-15T09:46:47.593Z,19.75
2022-10-15T09:49:30.290Z,19.34
2022-10-15T09:52:14.482Z,18.82
2022-10-15T09:55:06.033Z,18.81
2022-10-15T09:57:35.249Z,18.67
2022-10-15T10:00:05.339Z,17.84
2022-10-15T10:02:31.898Z,17.85
2022-10-15T10:05:20.239Z,17.99
2022-10-15T10:07:46.730Z,17.79
2022-10-15T10:10:25.493Z,17.58
2022-10-15T10:12:52.404Z,17.52
2022-10-15T10:15:21.558Z,16.95
2022-10-15T10:17:55.606Z,17.02
2022-10-15T10:20:30.952Z,17.60
2022-10-15T10:23:02.891Z,17.28
2022-10-15T10:25:29.260Z,17.81
2022-10-15T10:27:59.058Z,18.27
2022-10-15T10:30:25.708Z,18.50
2022-10-15T10:32:58.387Z,18.62
2022-10-15T10:35:30.643Z,18.41
2022-10-15T10:37:57.181Z,18.40
2022-10-15T10:40:27.026Z,18.58
2022-10-15T10:43:16.845Z,18.12
2022-10-15T10:46:14.491Z,18.19
2022-10-15T10:48:44.741Z,18.32
2022-10-15T10:51:19.027Z,17.95
2022-10-15T10:53:56.906Z,18.18
2022-10-15T10:56:28.073Z,17.97
2022-10-15T10:59:02.364Z,17.90
2022-10-15T11:01:29.916Z,17.99
2022-10-15T11:03:56.488Z,17.79
2022-10-15T11:06:35.083Z,17.54
2022-10-15T11:09:04.358Z,17.34
2022-10-15T11:11:38.513Z,17.66
2022-10-15T11:14:39.056Z,17.08
2022-10-15T11:17:23.365Z,17.14
2022-10-15T11:20:13.103Z,17.13
2022-10-15T11:22:50.294Z,17.12
2022-10-15T11:25:28.883Z,17.75
2022-10-15T11:27:55.232Z,18.34
2022-10-15T11:30:41.516Z,19.02
2022-10-15T11:33:26.086Z,19.93
2022-10-15T11:36:08.413Z,20.50
2022-10-15T11:38:46.594Z,20.85
2022-10-15T11:41:37.766Z,20.12
2022-10-15T11:44:37.341Z,19.97
2022-10-15T11:47:47.969Z,22.37
2022-10-15T11:50:28.457Z,23.37
2022-10-15T11:53:21.911Z,21.64
2022-10-15T11:55:59.594Z,20.71
2022-10-15T11:58:35.086Z,19.54
2022-10-15T12:01:09.302Z,19.06
2022-10-15T12:03:45.775Z,18.82
2022-10-15T12:06:17.139Z,18.26
2022-10-15T12:08:44.563Z,18.10
2022-10-15T12:11:17.525Z,17.77
2022-10-15T12:16:48.080Z,17.86
2022-10-15T12:19:24.393Z,17.30
2022-10-15T12:21:56.728Z,17.26
2022-10-15T12:24:38.425Z,17.51
2022-10-15T12:27:34.291Z,17.68
2022-10-15T12:30:03.653Z,17.36
2022-10-15T12:32:37.407Z,17.42
2022-10-15T12:35:18.130Z,18.65
2022-10-15T12:37:47.948Z,19.19
2022-10-15T12:40:28.158Z,19.48
2022-10-15T12:43:21.370Z,20.54
2022-10-15T12:46:00.128Z,19.20
2022-10-15T12:48:44.994Z,19.18
2022-10-15T12:51:23.751Z,18.89
2022-10-15T12:53:51.681Z,18.21
2022-10-15T12:56:18.064Z,17.84
2022-10-15T12:58:44.518Z,17.05
2022-10-15T13:01:13.854Z,17.16
2022-10-15T13:03:49.400Z,16.93
2022-10-15T13:06:21.852Z,16.79
2022-10-15T13:09:02.965Z,17.07
2022-10-15T13:11:38.232Z,16.90
2022-10-15T13:14:39.030Z,17.02
2022-10-15T13:17:15.272Z,16.73
2022-10-15T13:19:48.651Z,16.85
2022-10-15T13:22:27.738Z,16.42
2022-10-15T13:24:55.857Z,16.61
2022-10-15T13:27:29.905Z,16.52
2022-10-15T13:30:02.255Z,16.48
2022-10-15T13:32:32.290Z,16.48
2022-10-15T13:35:01.310Z,16.51
2022-10-15T13:37:33.145Z,16.70
2022-10-15T13:40:03.158Z,16.77
2022-10-15T13:42:33.569Z,16.47
2022-10-15T13:45:18.605Z,16.57
2022-10-15T13:47:51.208Z,16.65
2022-10-15T13:50:25.072Z,16.41
2022-10-15T13:52:59.322Z,16.46
2022-10-15T13:55:29.282Z,16.07
2022-10-15T13:58:18.926Z,16.08
2022-10-15T14:01:08.697Z,16.52
2022-10-15T14:03:37.470Z,16.43
2022-10-15T14:06:24.486Z,16.43
2022-10-15T14:08:54.174Z,16.40
2022-10-15T14:11:20.864Z,16.14
2022-10-15T14:13:52.865Z,16.13
2022-10-15T14:16:34.361Z,16.29
2022-10-15T14:19:11.945Z,16.28
2022-10-15T14:21:44.547Z,16.20
2022-10-15T14:24:20.652Z,16.29
2022-10-15T14:26:47.911Z,16.35
2022-10-15T14:29:25.886Z,16.44
2022-10-15T14:31:53.110Z,16.32
2022-10-15T14:34:34.704Z,16.14
2022-10-15T14:37:02.256Z,16.04
2022-10-15T14:39:35.060Z,15.96
2022-10-15T14:42:07.547Z,16.18
2022-10-15T14:44:45.003Z,15.88
2022-10-15T14:47:20.816Z,15.76
2022-10-15T14:49:48.033Z,15.96
2022-10-15T14:52:20.419Z,15.93
2022-10-15T14:54:57.670Z,16.08
2022-10-15T14:57:27.414Z,15.92
2022-10-15T14:59:55.918Z,15.83
2022-10-15T15:02:26.448Z,15.88
2022-10-15T15:05:12.468Z,15.99
2022-10-15T15:07:40.327Z,15.96
2022-10-15T15:10:08.812Z,16.23
2022-10-15T15:12:36.090Z,16.03
2022-10-15T15:15:02.669Z,15.74
2022-10-15T15:17:30.620Z,16.02
2022-10-15T15:19:57.867Z,15.88
2022-10-15T15:22:30.818Z,15.98
2022-10-15T15:24:59.760Z,16.05
2022-10-15T15:27:31.301Z,15.85
2022-10-15T15:29:58.165Z,15.86
2022-10-15T15:32:25.039Z,15.73
2022-10-15T15:34:52.937Z,15.58
2022-10-15T15:37:22.225Z,15.75
2022-10-15T15:39:49.424Z,15.85
2022-10-15T15:42:23.939Z,15.66
2022-10-15T15:44:50.888Z,15.80
2022-10-15T15:47:17.467Z,15.64
2022-10-15T15:49:43.895Z,15.66
2022-10-15T15:52:13.928Z,15.59
2022-10-15T15:54:41.218Z,15.39
2022-10-15T15:57:07.809Z,15.19
2022-10-15T15:59:34.425Z,15.40
2022-10-15T16:02:01.295Z,15.52
2022-10-15T16:04:27.860Z,15.37
2022-10-15T16:06:54.364Z,15.46
2022-10-15T16:09:22.911Z,15.24
2022-10-15T16:11:50.265Z,15.08
2022-10-15T16:14:16.818Z,15.32
2022-10-15T16:16:43.786Z,15.20
2022-10-15T16:19:10.181Z,15.21
2022-10-15T16:21:36.691Z,15.12
2022-10-15T16:24:03.172Z,15.09
2022-10-15T16:26:29.601Z,15.07
2022-10-15T16:28:56.153Z,15.09
2022-10-15T16:31:29.391Z,15.01
2022-10-15T16:33:57.243Z,15.00
2022-10-15T16:36:23.844Z,14.74
2022-10-15T16:38:50.307Z,14.68
2022-10-15T16:41:19.186Z,14.98
2022-10-15T16:43:47.141Z,14.89
2022-10-15T16:46:14.120Z,14.76
2022-10-15T16:48:40.552Z,14.72
2022-10-15T16:51:16.496Z,14.82
2022-10-15T16:53:45.975Z,14.93
2022-10-15T16:56:21.597Z,14.92
2022-10-15T16:58:48.452Z,14.90
2022-10-15T17:01:18.149Z,14.47
2022-10-15T17:03:45.499Z,14.33
2022-10-15T17:06:15.018Z,14.28
2022-10-15T17:08:45.521Z,14.26
2022-10-15T17:11:33.392Z,14.51
2022-10-15T17:14:03.768Z,14.65
2022-10-15T17:16:32.915Z,14.61
2022-10-15T17:18:59.997Z,14.50
2022-10-15T17:21:28.743Z,14.35
2022-10-15T17:23:57.520Z,14.46
2022-10-15T17:26:27.519Z,14.25
2022-10-15T17:28:54.653Z,14.21
2022-10-15T17:31:23.546Z,14.12
2022-10-15T17:33:58.048Z,14.20
2022-10-15T17:36:25.967Z,14.09
2022-10-15T17:38:55.024Z,13.97
2022-10-15T17:41:24.777Z,14.04
2022-10-15T17:43:52.239Z,14.10
2022-10-15T17:46:21.614Z,13.88
2022-10-15T17:48:48.225Z,14.03
2022-10-15T17:51:17.875Z,13.85
2022-10-15T17:53:45.139Z,14.00
2022-10-15T17:56:16.261Z,13.80
2022-10-15T17:58:43.049Z,13.95
2022-10-15T18:01:14.851Z,14.00
2022-10-15T18:03:42.903Z,14.05
2022-10-15T18:06:11.986Z,13.96
2022-10-15T18:08:38.635Z,13.83
2022-10-15T18:11:05.313Z,13.85
2022-10-15T18:13:32.258Z,14.01
2022-10-15T18:15:59.025Z,13.77
2022-10-15T18:18:26.322Z,13.89
2022-10-15T18:20:53.535Z,13.74
2022-10-15T18:23:20.399Z,13.80
2022-10-15T18:25:47.017Z,13.89
2022-10-15T18:28:13.964Z,13.93
2022-10-15T18:30:42.209Z,13.81
2022-10-15T18:33:11.211Z,13.58
2022-10-15T18:35:39.024Z,13.75
2022-10-15T18:38:05.477Z,13.56
2022-10-15T18:40:37.425Z,13.73
2022-10-15T18:43:07.308Z,13.45
2022-10-15T18:45:36.197Z,13.50
2022-10-15T18:48:02.992Z,13.48
2022-10-15T18:50:29.578Z,13.44
2022-10-15T18:52:56.053Z,13.65
2022-10-15T18:55:22.454Z,13.64
2022-10-15T18:57:49.321Z,13.52
2022-10-15T19:00:16.296Z,13.54
2022-10-15T19:02:42.771Z,13.49
2022-10-15T19:05:09.280Z,13.46
2022-10-15T19:07:35.874Z,13.37
2022-10-15T19:10:02.670Z,13.33
2022-10-15T19:12:29.103Z,13.58
2022-10-15T19:14:55.644Z,13.45
2022-10-15T19:17:22.122Z,13.31
2022-10-15T19:19:50.252Z,13.52
2022-10-15T19:22:18.069Z,13.49
2022-10-15T19:24:44.527Z,13.31
2022-10-15T19:27:11.484Z,13.46
2022-10-15T19:29:39.319Z,13.29
2022-10-15T19:32:05.972Z,13.44
2022-10-15T19:34:34.537Z,13.29
2022-10-15T19:37:01.397Z,13.24
2022-10-15T19:39:27.938Z,13.42
2022-10-15T19:41:54.426Z,13.33
2022-10-15T19:44:25.316Z,13.31
2022-10-15T19:46:52.453Z,13.42
2022-10-15T19:49:18.893Z,13.04
2022-10-15T19:51:48.219Z,13.10
2022-10-15T19:54:15.435Z,13.25
2022-10-15T19:56:41.908Z,13.30
2022-10-15T19:59:10.414Z,13.27
2022-10-15T20:01:37.165Z,13.38
2022-10-15T20:04:07.096Z,13.38
2022-10-15T20:06:35.795Z,13.27
2022-10-15T20:09:02.362Z,13.23
2022-10-15T20:11:29.096Z,13.37
2022-10-15T20:13:55.608Z,13.27
2022-10-15T20:16:23.321Z,13.26
2022-10-15T20:18:50.640Z,13.13
2022-10-15T20:21:17.236Z,13.09
2022-10-15T20:23:45.015Z,13.29
2022-10-15T20:26:13.156Z,13.09
2022-10-15T20:28:41.019Z,12.97
2022-10-15T20:31:10.009Z,13.02
2022-10-15T20:33:37.122Z,12.86
2022-10-15T20:36:08.597Z,12.94
2022-10-15T20:38:36.676Z,13.19
2022-10-15T20:41:12.233Z,13.09
2022-10-15T20:43:39.290Z,12.87
2022-10-15T20:46:25.578Z,12.80
2022-10-15T20:48:52.671Z,12.94
2022-10-15T20:51:23.357Z,12.97
2022-10-15T20:53:52.769Z,13.02
2022-10-15T20:56:19.261Z,12.99
2022-10-15T20:58:47.227Z,13.13
2022-10-15T21:01:13.916Z,13.18
2022-10-15T21:03:40.502Z,13.09
2022-10-15T21:06:06.929Z,13.24
2022-10-15T21:08:33.520Z,13.07
2022-10-15T21:11:05.439Z,13.15
2022-10-15T21:13:31.919Z,13.18
2022-10-15T21:16:00.146Z,13.18
2022-10-15T21:18:26.946Z,13.18
2022-10-15T21:21:14.365Z,13.14
2022-10-15T21:23:42.700Z,13.18
2022-10-15T21:26:15.443Z,13.34
2022-10-15T21:28:42.717Z,13.49
2022-10-15T21:31:11.760Z,13.32
2022-10-15T21:33:38.813Z,13.16
2022-10-15T21:36:22.469Z,13.48
2022-10-15T21:38:54.765Z,13.20
2022-10-15T21:41:22.054Z,13.18
2022-10-15T21:46:20.188Z,13.48
2022-10-15T21:48:47.532Z,13.41
2022-10-15T21:51:17.679Z,13.27
2022-10-15T21:53:44.675Z,13.64
2022-10-15T21:56:11.489Z,13.38
2022-10-15T21:58:39.535Z,13.62
2022-10-15T22:01:17.058Z,13.53
2022-10-15T22:03:45.840Z,13.44
2022-10-15T22:06:12.821Z,13.55
2022-10-15T22:08:39.292Z,13.58
2022-10-15T22:11:11.998Z,13.67
2022-10-15T22:13:39.065Z,13.66
2022-10-15T22:16:06.792Z,13.69
2022-10-15T22:18:33.514Z,13.72
2022-10-15T22:21:15.584Z,13.67
2022-10-15T22:23:54.409Z,13.56
2022-10-15T22:26:24.262Z,13.59
2022-10-15T22:28:58.283Z,13.66
2022-10-15T22:31:25.686Z,13.72
2022-10-15T22:33:52.560Z,13.70
2022-10-15T22:36:24.296Z,13.65
2022-10-15T22:39:02.533Z,13.71
2022-10-15T22:41:39.561Z,13.73
2022-10-15T22:44:14.687Z,13.61
2022-10-15T22:46:41.327Z,13.63
2022-10-15T22:49:09.998Z,13.47
2022-10-15T22:51:36.574Z,13.55
2022-10-15T22:54:03.565Z,13.64
2022-10-15T22:56:31.011Z,13.62
2022-10-15T22:58:58.224Z,13.58
2022-10-15T23:01:30.425Z,13.59
2022-10-15T23:04:01.492Z,13.53
2022-10-15T23:06:28.433Z,13.56
2022-10-15T23:08:56.359Z,13.56
2022-10-15T23:11:24.176Z,13.66
2022-10-15T23:14:00.478Z,13.59
2022-10-15T23:16:31.187Z,13.55
2022-10-15T23:19:02.816Z,13.52
2022-10-15T23:21:34.019Z,13.65
2022-10-15T23:24:01.360Z,13.55
2022-10-15T23:28:57.960Z,13.72
2022-10-15T23:31:28.024Z,13.57
2022-10-15T23:33:55.853Z,13.72
2022-10-15T23:36:23.796Z,13.68
2022-10-15T23:38:52.709Z,13.71
2022-10-15T23:41:19.474Z,13.49
2022-10-15T23:43:46.177Z,13.58
2022-10-15T23:46:13.484Z,13.70
2022-10-15T23:48:39.920Z,13.44
2022-10-15T23:51:24.589Z,13.62
2022-10-15T23:53:52.130Z,13.57
2022-10-15T23:56:19.265Z,13.58
2022-10-15T23:58:50.032Z,13.59
